Time;durP1;ratioP1;P1;durP2;ratioP2;P2;SDS_P1;SDS_P2;PMS_P1;PMS_P2;Temp;Humidity;BMP_temperature;BMP_pressure;BME280_temperature;BME280_humidity;BME280_pressure;Samples;Min_cycle;Max_cycle;Signal;HPM_P1;HPM_P2
2022/10/16 00:01:43;;;;;;;0.82;0.60;;;;;;;;;;4495962;28;20121;-52
2022/10/16 00:03:54;;;;;;;1.10;0.75;;;;;;;;;;4492679;28;20129;-53
2022/10/16 00:06:05;;;;;;;0.85;0.80;;;;;;;;;;4495909;28;20737;-52
2022/10/16 00:08:16;;;;;;;0.80;0.70;;;;;;;;;;4493016;28;20611;-51
2022/10/16 00:10:26;;;;;;;0.77;0.70;;;;;;;;;;4492357;28;32185;-53
2022/10/16 00:12:37;;;;;;;0.82;0.70;;;;;;;;;;4494015;28;20034;-51
2022/10/16 00:14:47;;;;;;;1.98;0.60;;;;;;;;;;4494163;28;20046;-52
2022/10/16 00:16:57;;;;;;;0.68;0.63;;;;;;;;;;4490641;28;32891;-53
2022/10/16 00:19:09;;;;;;;0.63;0.60;;;;;;;;;;4492873;28;20041;-51
2022/10/16 00:21:22;;;;;;;0.73;0.68;;;;;;;;;;4493638;28;20105;-52
2022/10/16 00:23:33;;;;;;;0.98;0.60;;;;;;;;;;4490624;28;20061;-53
2022/10/16 00:25:44;;;;;;;0.73;0.73;;;;;;;;;;4492167;28;20416;-53
2022/10/16 00:27:54;;;;;;;1.08;0.88;;;;;;;;;;4493634;28;20404;-53
2022/10/16 00:30:05;;;;;;;0.75;0.70;;;;;;;;;;4491747;28;34174;-51
2022/10/16 00:32:16;;;;;;;1.00;0.90;;;;;;;;;;4493852;28;20581;-51
2022/10/16 00:34:27;;;;;;;1.17;0.68;;;;;;;;;;4492795;28;20022;-52
2022/10/16 00:36:37;;;;;;;0.60;0.60;;;;;;;;;;4492836;28;23634;-53
2022/10/16 00:38:54;;;;;;;1.23;0.85;;;;;;;;;;4491507;28;29414;-53
2022/10/16 00:41:06;;;;;;;1.05;0.80;;;;;;;;;;4491618;28;20633;-52
2022/10/16 00:43:36;;;;;;;0.93;0.77;;;;;;;;;;4501239;28;20478;-53
2022/10/16 00:45:46;;;;;;;1.45;0.70;;;;;;;;;;4492230;28;20038;-51
2022/10/16 00:47:57;;;;;;;0.90;0.80;;;;;;;;;;4492258;28;20026;-52
2022/10/16 00:50:22;;;;;;;0.98;0.77;;;;;;;;;;4492066;28;20468;-51
2022/10/16 00:52:33;;;;;;;1.08;0.70;;;;;;;;;;4498257;28;20595;-53
2022/10/16 00:54:46;;;;;;;1.23;0.90;;;;;;;;;;4491477;28;20092;-51
2022/10/16 00:56:59;;;;;;;0.70;0.70;;;;;;;;;;4491897;28;20049;-53
2022/10/16 00:59:20;;;;;;;0.68;0.68;;;;;;;;;;4492899;28;20033;-52
2022/10/16 01:01:30;;;;;;;0.75;0.70;;;;;;;;;;4491508;28;20030;-53
2022/10/16 01:03:41;;;;;;;0.60;0.60;;;;;;;;;;4491681;28;30102;-50
2022/10/16 01:06:10;;;;;;;0.75;0.50;;;;;;;;;;4493472;28;20045;-53
2022/10/16 01:09:02;;;;;;;1.05;0.82;;;;;;;;;;4495788;28;20552;-54
2022/10/16 01:11:33;;;;;;;1.75;0.70;;;;;;;;;;4490997;28;20031;-52
2022/10/16 01:13:48;;;;;;;0.57;0.57;;;;;;;;;;4479023;28;20027;-52
2022/10/16 01:16:08;;;;;;;0.80;0.70;;;;;;;;;;4497942;28;20583;-51
2022/10/16 01:18:33;;;;;;;1.10;0.70;;;;;;;;;;4495503;28;20083;-52
2022/10/16 01:20:49;;;;;;;1.35;0.70;;;;;;;;;;4495333;28;20042;-52
2022/10/16 01:23:47;;;;;;;0.77;0.70;;;;;;;;;;4495699;28;20041;-49
2022/10/16 01:26:06;;;;;;;0.93;0.60;;;;;;;;;;4484547;28;20698;-53
2022/10/16 01:28:18;;;;;;;0.60;0.60;;;;;;;;;;4492225;28;20069;-51
2022/10/16 01:30:31;;;;;;;0.60;0.60;;;;;;;;;;4496056;28;20125;-53
2022/10/16 01:32:45;;;;;;;1.23;0.82;;;;;;;;;;4493112;28;20547;-52
2022/10/16 01:35:04;;;;;;;0.90;0.70;;;;;;;;;;4492169;28;20667;-51
2022/10/16 01:37:44;;;;;;;1.73;0.68;;;;;;;;;;4494047;28;20038;-52
2022/10/16 01:39:57;;;;;;;1.08;0.80;;;;;;;;;;4491186;28;20613;-52
2022/10/16 01:42:26;;;;;;;0.73;0.65;;;;;;;;;;4492188;28;20508;-52
2022/10/16 01:44:38;;;;;;;0.70;0.60;;;;;;;;;;4478930;28;20865;-53
2022/10/16 01:46:50;;;;;;;0.80;0.70;;;;;;;;;;4489879;28;20042;-52
2022/10/16 01:49:01;;;;;;;1.58;0.80;;;;;;;;;;4490789;28;20069;-52
2022/10/16 01:51:15;;;;;;;1.35;0.60;;;;;;;;;;4492734;28;20110;-51
2022/10/16 01:53:25;;;;;;;1.02;0.80;;;;;;;;;;4493871;28;20140;-50
2022/10/16 01:55:38;;;;;;;0.60;0.50;;;;;;;;;;4495065;28;26576;-52
2022/10/16 01:57:50;;;;;;;0.68;0.60;;;;;;;;;;4493791;28;20043;-51
2022/10/16 02:00:06;;;;;;;1.10;0.52;;;;;;;;;;4479667;28;20054;-51
2022/10/16 02:02:22;;;;;;;0.60;0.60;;;;;;;;;;4491367;28;20041;-53
2022/10/16 02:04:45;;;;;;;1.20;0.65;;;;;;;;;;4494817;28;20034;-51
2022/10/16 02:06:56;;;;;;;0.65;0.60;;;;;;;;;;4494308;28;20042;-52
2022/10/16 02:09:07;;;;;;;0.65;0.65;;;;;;;;;;4494116;28;27203;-51
2022/10/16 02:11:17;;;;;;;0.60;0.60;;;;;;;;;;4494030;28;20030;-50
2022/10/16 02:13:35;;;;;;;0.65;0.65;;;;;;;;;;4493747;28;36553;-53
2022/10/16 02:15:46;;;;;;;0.60;0.60;;;;;;;;;;4499999;28;20069;-52
2022/10/16 02:17:56;;;;;;;0.60;0.60;;;;;;;;;;4496072;28;20070;-52
2022/10/16 02:20:07;;;;;;;0.90;0.60;;;;;;;;;;4494269;28;20057;-53
2022/10/16 02:22:24;;;;;;;0.60;0.60;;;;;;;;;;4495587;28;20406;-51
2022/10/16 02:24:57;;;;;;;0.82;0.80;;;;;;;;;;4498835;28;20642;-52
2022/10/16 02:27:14;;;;;;;0.80;0.52;;;;;;;;;;4503246;28;20109;-50
2022/10/16 02:29:26;;;;;;;0.60;0.60;;;;;;;;;;4486086;28;20038;-52
2022/10/16 02:31:41;;;;;;;0.57;0.57;;;;;;;;;;4493918;28;20072;-52
2022/10/16 02:33:52;;;;;;;0.70;0.55;;;;;;;;;;4502555;28;20092;-50
2022/10/16 02:36:03;;;;;;;1.00;0.60;;;;;;;;;;4502481;28;29673;-52
2022/10/16 02:38:15;;;;;;;0.60;0.50;;;;;;;;;;4481802;28;20042;-52
2022/10/16 02:40:26;;;;;;;0.98;0.70;;;;;;;;;;4500503;28;20672;-52
2022/10/16 02:42:39;;;;;;;0.60;0.60;;;;;;;;;;4493605;28;20034;-52
2022/10/16 02:44:49;;;;;;;0.80;0.60;;;;;;;;;;4502711;28;20176;-52
2022/10/16 02:47:00;;;;;;;0.65;0.50;;;;;;;;;;4493446;28;20145;-52
2022/10/16 02:49:10;;;;;;;0.88;0.50;;;;;;;;;;4493757;28;40479;-50
2022/10/16 02:51:20;;;;;;;0.50;0.50;;;;;;;;;;4493719;28;20042;-52
2022/10/16 02:53:31;;;;;;;0.70;0.60;;;;;;;;;;4495258;28;20128;-52
2022/10/16 02:55:41;;;;;;;0.40;0.40;;;;;;;;;;4495307;28;20735;-52
2022/10/16 02:57:52;;;;;;;0.80;0.60;;;;;;;;;;4493047;28;20120;-52
2022/10/16 03:00:04;;;;;;;0.88;0.52;;;;;;;;;;4495395;28;20049;-50
2022/10/16 03:02:15;;;;;;;0.52;0.40;;;;;;;;;;4502567;28;20101;-52
2022/10/16 03:04:25;;;;;;;0.50;0.50;;;;;;;;;;4485769;28;20500;-52
2022/10/16 03:06:35;;;;;;;0.98;0.55;;;;;;;;;;4493884;28;37045;-53
2022/10/16 03:08:46;;;;;;;0.52;0.50;;;;;;;;;;4493121;28;38008;-52
2022/10/16 03:10:57;;;;;;;0.75;0.50;;;;;;;;;;4495056;28;20034;-52
2022/10/16 03:13:07;;;;;;;0.40;0.40;;;;;;;;;;4496327;28;20042;-52
2022/10/16 03:15:18;;;;;;;0.45;0.40;;;;;;;;;;4494941;28;20492;-52
2022/10/16 03:17:28;;;;;;;0.50;0.50;;;;;;;;;;4493868;28;20157;-52
2022/10/16 03:19:39;;;;;;;0.50;0.45;;;;;;;;;;4496975;28;20040;-53
2022/10/16 03:21:49;;;;;;;0.47;0.47;;;;;;;;;;4495641;28;20173;-52
2022/10/16 03:24:00;;;;;;;0.50;0.50;;;;;;;;;;4493184;28;43742;-53
2022/10/16 03:26:10;;;;;;;1.00;0.60;;;;;;;;;;4494954;28;36517;-53
2022/10/16 03:28:20;;;;;;;0.50;0.50;;;;;;;;;;4493335;28;20228;-52
2022/10/16 03:30:31;;;;;;;0.47;0.47;;;;;;;;;;4494452;28;20035;-51
2022/10/16 03:32:41;;;;;;;0.43;0.43;;;;;;;;;;4493458;28;20045;-52
2022/10/16 03:34:54;;;;;;;0.70;0.40;;;;;;;;;;4494463;28;39194;-53
2022/10/16 03:37:04;;;;;;;0.60;0.50;;;;;;;;;;4495202;28;20044;-53
2022/10/16 03:39:14;;;;;;;0.88;0.40;;;;;;;;;;4492853;28;20756;-52
2022/10/16 03:41:25;;;;;;;0.60;0.60;;;;;;;;;;4493468;28;20069;-52
2022/10/16 03:43:35;;;;;;;0.40;0.40;;;;;;;;;;4493815;28;27336;-50
2022/10/16 03:45:46;;;;;;;0.40;0.40;;;;;;;;;;4496090;28;20472;-53
2022/10/16 03:47:56;;;;;;;0.50;0.50;;;;;;;;;;4492451;28;29064;-51
2022/10/16 03:50:07;;;;;;;1.35;0.60;;;;;;;;;;4492978;28;20046;-53
2022/10/16 03:52:17;;;;;;;0.63;0.52;;;;;;;;;;4495848;28;21471;-52
2022/10/16 03:54:28;;;;;;;0.50;0.50;;;;;;;;;;4493195;28;20026;-52
2022/10/16 03:56:38;;;;;;;0.60;0.50;;;;;;;;;;4491809;28;20341;-53
2022/10/16 03:58:49;;;;;;;0.43;0.43;;;;;;;;;;4492737;28;20394;-53
2022/10/16 04:00:59;;;;;;;0.50;0.40;;;;;;;;;;4492706;28;20061;-50
2022/10/16 04:03:10;;;;;;;0.40;0.40;;;;;;;;;;4492393;28;37323;-51
2022/10/16 04:05:20;;;;;;;0.40;0.40;;;;;;;;;;4492774;28;20576;-53
2022/10/16 04:07:31;;;;;;;0.50;0.50;;;;;;;;;;4491113;28;24250;-52
2022/10/16 04:09:41;;;;;;;0.35;0.35;;;;;;;;;;4492499;28;20045;-50
2022/10/16 04:11:52;;;;;;;0.40;0.40;;;;;;;;;;4492478;28;20038;-53
2022/10/16 04:14:02;;;;;;;0.77;0.50;;;;;;;;;;4477170;28;20038;-52
2022/10/16 04:16:19;;;;;;;0.55;0.50;;;;;;;;;;4496307;28;20053;-52
2022/10/16 04:18:29;;;;;;;0.63;0.50;;;;;;;;;;4493494;28;20061;-51
2022/10/16 04:20:40;;;;;;;0.40;0.40;;;;;;;;;;4493810;28;20049;-54
2022/10/16 04:22:51;;;;;;;0.40;0.40;;;;;;;;;;4493036;28;20089;-52
2022/10/16 04:25:01;;;;;;;0.45;0.45;;;;;;;;;;4492276;28;22211;-52
2022/10/16 04:27:11;;;;;;;0.80;0.40;;;;;;;;;;4493112;28;20652;-51
2022/10/16 04:29:22;;;;;;;0.40;0.40;;;;;;;;;;4492331;28;20041;-53
2022/10/16 04:31:33;;;;;;;0.30;0.30;;;;;;;;;;4493420;28;20508;-52
2022/10/16 04:33:43;;;;;;;0.43;0.43;;;;;;;;;;4493066;28;20061;-51
2022/10/16 04:36:01;;;;;;;0.40;0.40;;;;;;;;;;4493932;28;20121;-52
2022/10/16 04:38:11;;;;;;;1.63;0.50;;;;;;;;;;4495913;28;20033;-52
2022/10/16 04:40:21;;;;;;;1.17;0.60;;;;;;;;;;4490495;28;33326;-53
2022/10/16 04:42:32;;;;;;;0.52;0.50;;;;;;;;;;4493254;28;20519;-54
2022/10/16 04:44:42;;;;;;;0.63;0.55;;;;;;;;;;4492336;28;31430;-52
2022/10/16 04:46:53;;;;;;;0.50;0.50;;;;;;;;;;4493257;28;20047;-54
2022/10/16 04:49:03;;;;;;;0.55;0.45;;;;;;;;;;4491983;28;31773;-53
2022/10/16 04:51:13;;;;;;;0.40;0.40;;;;;;;;;;4491817;28;20041;-52
2022/10/16 04:53:24;;;;;;;0.50;0.50;;;;;;;;;;4485492;28;20038;-53
2022/10/16 04:55:34;;;;;;;0.85;0.50;;;;;;;;;;4491939;28;21437;-53
2022/10/16 04:57:45;;;;;;;0.65;0.55;;;;;;;;;;4491567;28;20032;-53
2022/10/16 04:59:55;;;;;;;0.50;0.40;;;;;;;;;;4500374;28;20599;-52
2022/10/16 05:02:06;;;;;;;0.52;0.52;;;;;;;;;;4493909;28;20041;-53
2022/10/16 05:04:16;;;;;;;0.50;0.50;;;;;;;;;;4489806;28;41646;-54
2022/10/16 05:06:27;;;;;;;0.38;0.38;;;;;;;;;;4493076;28;20404;-54
2022/10/16 05:08:37;;;;;;;0.50;0.50;;;;;;;;;;4492799;28;20049;-53
2022/10/16 05:10:48;;;;;;;0.40;0.40;;;;;;;;;;4501755;28;20130;-53
2022/10/16 05:12:58;;;;;;;0.60;0.50;;;;;;;;;;4493013;28;24864;-53
2022/10/16 05:15:09;;;;;;;0.57;0.50;;;;;;;;;;4494326;28;20037;-53
2022/10/16 05:17:19;;;;;;;0.57;0.50;;;;;;;;;;4491753;28;20451;-51
2022/10/16 05:19:30;;;;;;;1.00;0.52;;;;;;;;;;4491623;28;20724;-53
2022/10/16 05:21:40;;;;;;;0.50;0.50;;;;;;;;;;4497378;28;20073;-52
2022/10/16 05:23:53;;;;;;;0.60;0.60;;;;;;;;;;4490899;28;20751;-54
2022/10/16 05:26:03;;;;;;;0.52;0.50;;;;;;;;;;4491855;28;20034;-51
2022/10/16 05:28:13;;;;;;;0.70;0.50;;;;;;;;;;4493131;28;20030;-54
2022/10/16 05:30:24;;;;;;;1.30;0.65;;;;;;;;;;4492842;28;20601;-53
2022/10/16 05:32:34;;;;;;;0.50;0.50;;;;;;;;;;4491065;28;39687;-54
2022/10/16 05:34:45;;;;;;;0.60;0.60;;;;;;;;;;4491343;28;35219;-53
2022/10/16 05:36:56;;;;;;;0.40;0.40;;;;;;;;;;4493794;28;20026;-53
2022/10/16 05:39:06;;;;;;;1.20;0.50;;;;;;;;;;4492706;28;23737;-54
2022/10/16 05:41:21;;;;;;;0.50;0.50;;;;;;;;;;4492557;28;20143;-53
2022/10/16 05:43:32;;;;;;;0.52;0.50;;;;;;;;;;4491953;28;20022;-53
2022/10/16 05:45:42;;;;;;;0.52;0.52;;;;;;;;;;4493334;28;20041;-53
2022/10/16 05:47:53;;;;;;;0.50;0.50;;;;;;;;;;4493581;28;20038;-51
2022/10/16 05:50:04;;;;;;;0.50;0.50;;;;;;;;;;4492451;28;20033;-52
2022/10/16 05:52:14;;;;;;;0.40;0.40;;;;;;;;;;4492747;28;20074;-51
2022/10/16 05:54:24;;;;;;;0.55;0.55;;;;;;;;;;4492083;28;20033;-52
2022/10/16 05:56:35;;;;;;;0.40;0.40;;;;;;;;;;4490784;28;39364;-54
2022/10/16 05:58:45;;;;;;;1.08;0.60;;;;;;;;;;4491013;28;20053;-53
2022/10/16 06:00:57;;;;;;;0.68;0.50;;;;;;;;;;4489877;28;41392;-56
2022/10/16 06:03:08;;;;;;;0.60;0.60;;;;;;;;;;4490818;28;20041;-54
2022/10/16 06:05:18;;;;;;;0.82;0.55;;;;;;;;;;4495604;28;20034;-54
2022/10/16 06:07:29;;;;;;;0.63;0.50;;;;;;;;;;4491825;28;20113;-54
2022/10/16 06:09:39;;;;;;;0.50;0.50;;;;;;;;;;4492561;28;20042;-53
2022/10/16 06:11:49;;;;;;;0.50;0.50;;;;;;;;;;4489690;28;20021;-53
2022/10/16 06:14:02;;;;;;;0.55;0.55;;;;;;;;;;4491988;28;20551;-52
2022/10/16 06:16:12;;;;;;;0.50;0.50;;;;;;;;;;4490574;28;20681;-52
2022/10/16 06:18:23;;;;;;;0.70;0.65;;;;;;;;;;4491308;28;20061;-53
2022/10/16 06:20:34;;;;;;;0.55;0.55;;;;;;;;;;4490954;28;20034;-51
2022/10/16 06:22:44;;;;;;;0.50;0.50;;;;;;;;;;4491078;28;20520;-52
2022/10/16 06:24:54;;;;;;;0.52;0.50;;;;;;;;;;4490330;28;20065;-52
2022/10/16 06:27:05;;;;;;;0.40;0.40;;;;;;;;;;4497506;28;20041;-52
2022/10/16 06:29:15;;;;;;;0.50;0.50;;;;;;;;;;4490396;28;20030;-53
2022/10/16 06:31:28;;;;;;;0.50;0.50;;;;;;;;;;4492195;28;20034;-52
2022/10/16 06:33:39;;;;;;;0.50;0.50;;;;;;;;;;4490789;28;20038;-59
2022/10/16 06:35:50;;;;;;;0.50;0.50;;;;;;;;;;4491532;28;20042;-53
2022/10/16 06:38:00;;;;;;;0.60;0.60;;;;;;;;;;4494947;28;20043;-54
2022/10/16 06:40:10;;;;;;;1.50;0.50;;;;;;;;;;4493170;28;24906;-53
2022/10/16 06:42:21;;;;;;;0.50;0.50;;;;;;;;;;4494129;28;20035;-52
2022/10/16 06:44:31;;;;;;;0.50;0.50;;;;;;;;;;4502269;28;20041;-53
2022/10/16 06:46:42;;;;;;;0.73;0.40;;;;;;;;;;4495022;28;20038;-54
2022/10/16 06:48:53;;;;;;;0.50;0.50;;;;;;;;;;4492881;28;39109;-54
2022/10/16 06:51:05;;;;;;;0.55;0.55;;;;;;;;;;4499554;28;20105;-53
2022/10/16 06:53:16;;;;;;;0.40;0.40;;;;;;;;;;4493519;28;20053;-53
2022/10/16 06:55:26;;;;;;;0.50;0.50;;;;;;;;;;4495550;28;20036;-54
2022/10/16 06:57:37;;;;;;;0.40;0.40;;;;;;;;;;4493570;28;20044;-53
2022/10/16 06:59:47;;;;;;;0.40;0.40;;;;;;;;;;4494384;28;20080;-53
2022/10/16 07:01:57;;;;;;;0.57;0.40;;;;;;;;;;4497398;28;20511;-54
2022/10/16 07:04:08;;;;;;;0.50;0.50;;;;;;;;;;4494092;28;20038;-51
2022/10/16 07:06:21;;;;;;;0.47;0.47;;;;;;;;;;4494527;28;20058;-54
2022/10/16 07:08:37;;;;;;;0.82;0.50;;;;;;;;;;4503276;28;20038;-53
2022/10/16 07:10:48;;;;;;;0.40;0.40;;;;;;;;;;4494114;28;20737;-50
2022/10/16 07:12:58;;;;;;;0.30;0.30;;;;;;;;;;4494369;28;20105;-52
2022/10/16 07:15:08;;;;;;;0.82;0.50;;;;;;;;;;4492855;28;35603;-52
2022/10/16 07:17:19;;;;;;;0.50;0.50;;;;;;;;;;4495433;28;20042;-51
2022/10/16 07:19:29;;;;;;;0.43;0.40;;;;;;;;;;4493594;28;20045;-52
2022/10/16 07:21:40;;;;;;;0.40;0.40;;;;;;;;;;4491293;28;20137;-50
2022/10/16 07:23:52;;;;;;;1.05;0.40;;;;;;;;;;4493971;28;20040;-54
2022/10/16 07:26:02;;;;;;;0.50;0.50;;;;;;;;;;4491184;28;20038;-52
2022/10/16 07:28:13;;;;;;;0.43;0.43;;;;;;;;;;4492380;28;20030;-52
2022/10/16 07:30:23;;;;;;;1.02;0.50;;;;;;;;;;4492724;28;20038;-53
2022/10/16 07:32:34;;;;;;;0.52;0.52;;;;;;;;;;4493908;28;24722;-53
2022/10/16 07:34:45;;;;;;;0.40;0.40;;;;;;;;;;4479828;28;34142;-54
2022/10/16 07:36:56;;;;;;;0.40;0.40;;;;;;;;;;4494349;28;20590;-51
2022/10/16 07:39:06;;;;;;;0.40;0.40;;;;;;;;;;4492095;28;20026;-52
2022/10/16 07:41:19;;;;;;;0.45;0.45;;;;;;;;;;4494626;28;20129;-51
2022/10/16 07:43:29;;;;;;;0.43;0.43;;;;;;;;;;4501832;28;20042;-52
2022/10/16 07:45:48;;;;;;;2.45;0.75;;;;;;;;;;4475725;28;20398;-52
2022/10/16 07:47:58;;;;;;;0.40;0.40;;;;;;;;;;4495723;28;20036;-51
2022/10/16 07:50:09;;;;;;;0.90;0.50;;;;;;;;;;4492551;28;31201;-52
2022/10/16 07:52:19;;;;;;;1.10;0.40;;;;;;;;;;4493468;28;20042;-52
2022/10/16 07:54:30;;;;;;;0.40;0.40;;;;;;;;;;4494550;28;20781;-53
2022/10/16 07:56:40;;;;;;;0.40;0.40;;;;;;;;;;4492088;28;20034;-53
2022/10/16 07:58:51;;;;;;;0.50;0.45;;;;;;;;;;4493395;28;20046;-53
2022/10/16 08:01:06;;;;;;;0.60;0.50;;;;;;;;;;4507336;28;20116;-52
2022/10/16 08:03:17;;;;;;;0.50;0.40;;;;;;;;;;4500214;28;20134;-52
2022/10/16 08:05:28;;;;;;;0.70;0.50;;;;;;;;;;4491678;28;20526;-52
2022/10/16 08:07:39;;;;;;;0.40;0.40;;;;;;;;;;4490578;28;20029;-52
2022/10/16 08:09:51;;;;;;;0.95;0.40;;;;;;;;;;4491136;28;20045;-53
2022/10/16 08:12:02;;;;;;;0.40;0.40;;;;;;;;;;4493599;28;20038;-53
2022/10/16 08:14:12;;;;;;;0.82;0.60;;;;;;;;;;4494203;28;20038;-51
2022/10/16 08:16:23;;;;;;;0.50;0.40;;;;;;;;;;4492722;28;20046;-52
2022/10/16 08:18:37;;;;;;;0.43;0.43;;;;;;;;;;4492587;28;20771;-53
2022/10/16 08:20:58;;;;;;;0.50;0.40;;;;;;;;;;4491889;28;20038;-54
2022/10/16 08:23:10;;;;;;;0.40;0.40;;;;;;;;;;4492552;28;20078;-52
2022/10/16 08:25:22;;;;;;;0.70;0.50;;;;;;;;;;4497450;28;20030;-54
2022/10/16 08:27:32;;;;;;;0.45;0.43;;;;;;;;;;4493697;28;20049;-52
2022/10/16 08:29:43;;;;;;;0.77;0.60;;;;;;;;;;4494991;28;20072;-53
2022/10/16 08:31:53;;;;;;;1.23;0.98;;;;;;;;;;4492136;28;20077;-51
2022/10/16 08:34:04;;;;;;;1.08;0.98;;;;;;;;;;4492416;28;20376;-52
2022/10/16 08:36:15;;;;;;;0.40;0.40;;;;;;;;;;4490913;28;20433;-53
2022/10/16 08:38:25;;;;;;;0.60;0.60;;;;;;;;;;4492567;28;20031;-53
2022/10/16 08:40:37;;;;;;;0.47;0.47;;;;;;;;;;4490759;28;20069;-59
2022/10/16 08:43:06;;;;;;;0.40;0.40;;;;;;;;;;4492652;28;21311;-56
2022/10/16 08:45:20;;;;;;;0.52;0.52;;;;;;;;;;4492291;28;20041;-55
2022/10/16 08:48:09;;;;;;;0.30;0.30;;;;;;;;;;4483631;28;20157;-52
2022/10/16 08:50:27;;;;;;;0.40;0.40;;;;;;;;;;4493304;28;20139;-52
2022/10/16 08:52:43;;;;;;;0.40;0.32;;;;;;;;;;4485446;28;20046;-53
2022/10/16 08:54:55;;;;;;;0.60;0.40;;;;;;;;;;4496274;28;20045;-54
2022/10/16 08:57:28;;;;;;;0.43;0.35;;;;;;;;;;4493698;28;20038;-53
2022/10/16 08:59:38;;;;;;;0.30;0.30;;;;;;;;;;4494237;28;20606;-55
2022/10/16 09:01:51;;;;;;;0.52;0.40;;;;;;;;;;4494247;28;20050;-53
2022/10/16 09:04:22;;;;;;;0.70;0.50;;;;;;;;;;4491353;28;20727;-51
2022/10/16 09:06:44;;;;;;;1.00;0.70;;;;;;;;;;4494715;28;20042;-54
2022/10/16 09:09:13;;;;;;;0.70;0.50;;;;;;;;;;4492433;28;20603;-53
2022/10/16 09:11:32;;;;;;;0.57;0.57;;;;;;;;;;4491603;28;20038;-52
2022/10/16 09:13:49;;;;;;;0.73;0.47;;;;;;;;;;4491474;28;20682;-53
2022/10/16 09:16:25;;;;;;;0.40;0.40;;;;;;;;;;4476757;28;20045;-52
2022/10/16 09:19:22;;;;;;;0.40;0.40;;;;;;;;;;4490055;28;20043;-53
2022/10/16 09:21:36;;;;;;;0.50;0.40;;;;;;;;;;4491514;28;20060;-53
2022/10/16 09:23:47;;;;;;;0.40;0.40;;;;;;;;;;4483220;28;20328;-53
2022/10/16 09:25:58;;;;;;;0.50;0.50;;;;;;;;;;4494658;28;20049;-52
2022/10/16 09:28:10;;;;;;;0.50;0.50;;;;;;;;;;4490519;28;20033;-53
2022/10/16 09:30:21;;;;;;;0.52;0.50;;;;;;;;;;4491862;28;20515;-52
2022/10/16 09:32:33;;;;;;;0.40;0.40;;;;;;;;;;4491209;28;20041;-52
2022/10/16 09:34:47;;;;;;;0.40;0.40;;;;;;;;;;4491504;28;20034;-52
2022/10/16 09:36:59;;;;;;;0.60;0.60;;;;;;;;;;4495183;28;20038;-53
2022/10/16 09:39:11;;;;;;;0.40;0.40;;;;;;;;;;4492943;28;20080;-53
2022/10/16 09:41:22;;;;;;;0.65;0.40;;;;;;;;;;4492164;28;20061;-52
2022/10/16 09:43:48;;;;;;;1.10;0.50;;;;;;;;;;4490844;28;20799;-53
2022/10/16 09:45:59;;;;;;;0.85;0.65;;;;;;;;;;4492659;28;20117;-53
2022/10/16 09:48:11;;;;;;;0.45;0.40;;;;;;;;;;4489808;28;20030;-53
2022/10/16 09:50:23;;;;;;;1.33;0.50;;;;;;;;;;4484227;28;20030;-53
2022/10/16 09:52:34;;;;;;;0.98;0.60;;;;;;;;;;4491026;28;20618;-51
2022/10/16 09:54:54;;;;;;;0.45;0.32;;;;;;;;;;4491466;28;20141;-53
2022/10/16 09:57:06;;;;;;;0.35;0.30;;;;;;;;;;4488728;28;20034;-52
2022/10/16 09:59:18;;;;;;;0.52;0.38;;;;;;;;;;4493477;28;20117;-53
2022/10/16 10:01:50;;;;;;;0.40;0.40;;;;;;;;;;4491472;28;20654;-52
2022/10/16 10:04:02;;;;;;;0.43;0.30;;;;;;;;;;4494791;28;20088;-54
2022/10/16 10:06:31;;;;;;;0.32;0.32;;;;;;;;;;4491482;28;20065;-54
2022/10/16 10:08:52;;;;;;;0.47;0.25;;;;;;;;;;4491756;28;20038;-52
2022/10/16 10:11:02;;;;;;;0.40;0.40;;;;;;;;;;4500142;28;20052;-52
2022/10/16 10:13:20;;;;;;;0.45;0.40;;;;;;;;;;4493192;28;20042;-53
2022/10/16 10:15:34;;;;;;;0.30;0.30;;;;;;;;;;4497027;28;20598;-53
2022/10/16 10:17:50;;;;;;;0.35;0.35;;;;;;;;;;4501828;28;20349;-52
2022/10/16 10:20:15;;;;;;;0.32;0.32;;;;;;;;;;4494318;28;20073;-53
2022/10/16 10:22:32;;;;;;;0.30;0.30;;;;;;;;;;4494976;28;20057;-52
2022/10/16 10:24:44;;;;;;;0.40;0.40;;;;;;;;;;4494028;28;20665;-52
2022/10/16 10:27:06;;;;;;;0.57;0.40;;;;;;;;;;4493778;28;20489;-53
2022/10/16 10:29:30;;;;;;;0.70;0.30;;;;;;;;;;4492599;28;20029;-52
2022/10/16 10:32:02;;;;;;;1.05;0.40;;;;;;;;;;4494641;28;20030;-53
2022/10/16 10:34:38;;;;;;;0.80;0.40;;;;;;;;;;4495863;28;20046;-53
2022/10/16 10:37:00;;;;;;;0.30;0.30;;;;;;;;;;4494830;28;20065;-53
2022/10/16 10:39:20;;;;;;;0.30;0.30;;;;;;;;;;4493936;28;20697;-52
2022/10/16 10:41:49;;;;;;;0.30;0.30;;;;;;;;;;4492534;28;20120;-50
2022/10/16 10:44:30;;;;;;;0.50;0.50;;;;;;;;;;4494143;28;20068;-52
2022/10/16 10:46:47;;;;;;;1.38;0.50;;;;;;;;;;4492632;28;20045;-54
2022/10/16 10:49:09;;;;;;;0.40;0.40;;;;;;;;;;4497370;28;20038;-50
2022/10/16 10:51:45;;;;;;;0.43;0.40;;;;;;;;;;4492577;28;20041;-53
2022/10/16 10:54:10;;;;;;;0.63;0.47;;;;;;;;;;4494645;28;20053;-53
2022/10/16 10:56:39;;;;;;;0.55;0.40;;;;;;;;;;4497717;28;20040;-52
2022/10/16 10:58:52;;;;;;;0.30;0.30;;;;;;;;;;4497437;28;21515;-53
2022/10/16 11:01:11;;;;;;;0.52;0.30;;;;;;;;;;4492941;28;20115;-53
2022/10/16 11:03:54;;;;;;;0.30;0.30;;;;;;;;;;4493296;28;20034;-52
2022/10/16 11:06:07;;;;;;;0.30;0.30;;;;;;;;;;4493961;28;20034;-51
2022/10/16 11:08:21;;;;;;;0.20;0.20;;;;;;;;;;4493291;28;20030;-53
2022/10/16 11:10:58;;;;;;;0.80;0.30;;;;;;;;;;4495121;28;20042;-51
2022/10/16 11:13:17;;;;;;;0.73;0.32;;;;;;;;;;4469372;28;20043;-52
2022/10/16 11:15:35;;;;;;;0.60;0.40;;;;;;;;;;4485393;28;20038;-53
2022/10/16 11:17:58;;;;;;;0.40;0.30;;;;;;;;;;4497532;28;21477;-52
2022/10/16 11:20:14;;;;;;;0.40;0.20;;;;;;;;;;4493263;28;20038;-52
2022/10/16 11:22:37;;;;;;;0.80;0.38;;;;;;;;;;4490977;28;20047;-52
2022/10/16 11:25:12;;;;;;;0.20;0.20;;;;;;;;;;4501761;28;20046;-53
2022/10/16 11:28:03;;;;;;;0.45;0.22;;;;;;;;;;4494653;28;20046;-51
2022/10/16 11:30:22;;;;;;;0.40;0.20;;;;;;;;;;4493006;28;20234;-53
2022/10/16 11:32:42;;;;;;;1.02;0.30;;;;;;;;;;4497500;28;20026;-52
2022/10/16 11:35:00;;;;;;;0.68;0.30;;;;;;;;;;4494140;28;20731;-52
2022/10/16 11:37:14;;;;;;;0.28;0.15;;;;;;;;;;4501353;28;20519;-52
2022/10/16 11:39:29;;;;;;;0.60;0.32;;;;;;;;;;4497741;28;20042;-54
2022/10/16 11:41:50;;;;;;;1.63;0.80;;;;;;;;;;4492511;28;20046;-53
2022/10/16 11:44:14;;;;;;;0.77;0.55;;;;;;;;;;4484775;28;20089;-52
2022/10/16 11:46:26;;;;;;;1.15;0.43;;;;;;;;;;4492024;28;20038;-53
2022/10/16 11:48:51;;;;;;;0.77;0.50;;;;;;;;;;4493287;28;20034;-53
2022/10/16 11:51:16;;;;;;;0.30;0.30;;;;;;;;;;4496177;28;20038;-53
2022/10/16 11:53:55;;;;;;;0.32;0.20;;;;;;;;;;4493714;28;20029;-53
2022/10/16 11:56:06;;;;;;;0.40;0.30;;;;;;;;;;4500328;28;20168;-52
2022/10/16 11:58:24;;;;;;;0.95;0.30;;;;;;;;;;4491028;28;20078;-52
2022/10/16 12:00:40;;;;;;;0.28;0.17;;;;;;;;;;4492334;28;20061;-52
2022/10/16 12:03:00;;;;;;;0.43;0.40;;;;;;;;;;4495921;28;20051;-52
2022/10/16 12:05:20;;;;;;;0.30;0.30;;;;;;;;;;4493016;28;20042;-53
2022/10/16 12:07:38;;;;;;;0.60;0.38;;;;;;;;;;4493924;28;20038;-53
2022/10/16 12:09:48;;;;;;;1.08;0.30;;;;;;;;;;4491691;28;20026;-53
2022/10/16 12:11:59;;;;;;;0.20;0.20;;;;;;;;;;4476006;28;20508;-52
2022/10/16 12:14:12;;;;;;;0.25;0.20;;;;;;;;;;4492378;28;20092;-52
2022/10/16 12:16:23;;;;;;;0.20;0.20;;;;;;;;;;4492620;28;20185;-50
2022/10/16 12:18:34;;;;;;;0.70;0.20;;;;;;;;;;4493368;28;20100;-52
2022/10/16 12:20:58;;;;;;;0.43;0.20;;;;;;;;;;4491670;28;20732;-52
2022/10/16 12:23:20;;;;;;;0.20;0.20;;;;;;;;;;4496528;28;21494;-53
2022/10/16 12:25:37;;;;;;;1.17;0.30;;;;;;;;;;4494492;28;20688;-54
2022/10/16 12:28:01;;;;;;;0.40;0.20;;;;;;;;;;4495366;28;21003;-53
2022/10/16 12:30:22;;;;;;;0.70;0.30;;;;;;;;;;4496660;28;20613;-53
2022/10/16 12:32:34;;;;;;;0.10;0.10;;;;;;;;;;4493339;28;20045;-52
2022/10/16 12:34:45;;;;;;;0.20;0.20;;;;;;;;;;4494059;28;20037;-53
2022/10/16 12:36:56;;;;;;;0.20;0.20;;;;;;;;;;4491999;28;24158;-53
2022/10/16 12:39:21;;;;;;;0.68;0.28;;;;;;;;;;4492332;28;20034;-53
2022/10/16 12:41:37;;;;;;;0.47;0.28;;;;;;;;;;4491200;28;20173;-53
2022/10/16 12:43:47;;;;;;;0.52;0.20;;;;;;;;;;4490266;28;20042;-53
2022/10/16 12:46:08;;;;;;;0.20;0.20;;;;;;;;;;4495590;28;20038;-52
2022/10/16 12:48:22;;;;;;;0.47;0.20;;;;;;;;;;4493085;28;20104;-51
2022/10/16 12:50:38;;;;;;;0.25;0.25;;;;;;;;;;4493124;28;20751;-53
2022/10/16 12:52:48;;;;;;;0.10;0.10;;;;;;;;;;4495035;28;20038;-53
2022/10/16 12:55:00;;;;;;;0.47;0.20;;;;;;;;;;4492311;28;20045;-51
2022/10/16 12:57:31;;;;;;;0.20;0.20;;;;;;;;;;4491086;28;20164;-53
2022/10/16 13:00:00;;;;;;;0.20;0.20;;;;;;;;;;4490190;28;20137;-54
2022/10/16 13:02:32;;;;;;;0.30;0.22;;;;;;;;;;4490597;28;20137;-53
2022/10/16 13:04:50;;;;;;;0.10;0.10;;;;;;;;;;4491589;28;20548;-54
2022/10/16 13:07:26;;;;;;;0.30;0.17;;;;;;;;;;4491272;28;20068;-52
2022/10/16 13:09:46;;;;;;;0.20;0.20;;;;;;;;;;4491563;28;20038;-53
2022/10/16 13:12:30;;;;;;;0.82;0.20;;;;;;;;;;4508006;28;20034;-53
2022/10/16 13:15:03;;;;;;;0.38;0.20;;;;;;;;;;4484035;28;20046;-53
2022/10/16 13:17:17;;;;;;;0.38;0.20;;;;;;;;;;4492189;28;20034;-53
2022/10/16 13:19:44;;;;;;;0.20;0.20;;;;;;;;;;4492163;28;20085;-53
2022/10/16 13:22:01;;;;;;;;;;;;;;;;;;4492139;28;20080;-53
2022/10/16 13:24:31;;;;;;;0.25;0.20;;;;;;;;;;4490973;28;19921;-53
2022/10/16 13:27:17;;;;;;;0.73;0.30;;;;;;;;;;4490843;28;20042;-54
2022/10/16 13:29:32;;;;;;;0.20;0.20;;;;;;;;;;4478864;28;20046;-53
2022/10/16 13:31:43;;;;;;;0.15;0.13;;;;;;;;;;4493264;28;20857;-53